Time;durP1;ratioP1;P1;durP2;ratioP2;P2;SDS_P1;SDS_P2;PMS_P1;PMS_P2;Temp;Humidity;BMP_temperature;BMP_pressure;BME280_temperature;BME280_humidity;BME280_pressure;Samples;Min_cycle;Max_cycle;Signal;HPM_P1;HPM_P2
2021/11/01 00:01:32;;;;;;;9.45;2.35;;;11.80;87.90;;;;;;5074953;28;20383;-89
2021/11/01 00:04:02;;;;;;;6.50;1.92;;;11.80;87.80;;;;;;5074305;28;20375;-88
2021/11/01 00:06:29;;;;;;;5.13;1.73;;;11.80;87.90;;;;;;5072713;28;20051;-89
2021/11/01 00:08:54;;;;;;;7.28;2.00;;;11.80;87.90;;;;;;5072218;28;20031;-88
2021/11/01 00:11:20;;;;;;;6.75;2.00;;;11.80;88.00;;;;;;5073419;28;20021;-87
2021/11/01 00:13:46;;;;;;;3.55;1.40;;;11.80;87.90;;;;;;5073051;28;20524;-87
2021/11/01 00:16:11;;;;;;;7.38;2.20;;;11.70;87.90;;;;;;5072047;28;20520;-87
2021/11/01 00:18:37;;;;;;;6.70;1.90;;;11.80;88.00;;;;;;5072129;28;20112;-87
2021/11/01 00:21:03;;;;;;;8.95;2.25;;;11.80;88.00;;;;;;5073543;28;20050;-87
2021/11/01 00:23:29;;;;;;;7.55;2.33;;;11.70;87.90;;;;;;5076409;28;20023;-87
2021/11/01 00:25:54;;;;;;;7.75;2.00;;;11.70;87.90;;;;;;5071799;28;20016;-86
2021/11/01 00:28:20;;;;;;;6.80;1.77;;;11.70;87.90;;;;;;5079602;28;20134;-86
2021/11/01 00:30:46;;;;;;;6.43;1.95;;;11.70;87.90;;;;;;5071172;28;20030;-86
2021/11/01 00:33:12;;;;;;;7.82;2.60;;;11.70;87.90;;;;;;5073826;28;20024;-86
2021/11/01 00:35:38;;;;;;;8.25;2.58;;;11.70;87.70;;;;;;5086479;28;20028;-87
2021/11/01 00:38:04;;;;;;;7.75;2.03;;;11.70;87.70;;;;;;5073615;28;20025;-87
2021/11/01 00:40:30;;;;;;;6.80;2.13;;;11.60;87.60;;;;;;5077569;28;20021;-85
2021/11/01 00:42:56;;;;;;;7.85;2.20;;;11.60;87.60;;;;;;5074068;28;20463;-84
2021/11/01 00:45:21;;;;;;;5.30;1.40;;;11.60;87.70;;;;;;5071671;28;20025;-85
2021/11/01 00:47:47;;;;;;;8.20;1.85;;;11.60;87.80;;;;;;5072595;28;20021;-85
2021/11/01 00:50:14;;;;;;;6.53;2.30;;;11.60;87.80;;;;;;5070820;28;20471;-85
2021/11/01 00:52:40;;;;;;;6.43;1.90;;;11.60;87.70;;;;;;5071639;28;20078;-84
2021/11/01 00:55:09;;;;;;;6.97;2.40;;;11.50;87.70;;;;;;5071171;28;20021;-84
2021/11/01 00:57:35;;;;;;;14.32;3.03;;;11.50;87.60;;;;;;5069549;28;20099;-85
2021/11/01 01:00:01;;;;;;;6.22;1.90;;;11.50;87.50;;;;;;5073028;28;20119;-88
2021/11/01 01:02:32;;;;;;;10.07;2.67;;;11.50;87.60;;;;;;5071412;28;20028;-88
2021/11/01 01:04:57;;;;;;;8.43;2.20;;;11.40;87.50;;;;;;5072768;28;20028;-88
2021/11/01 01:07:23;;;;;;;7.60;2.03;;;11.40;87.60;;;;;;5075540;28;20039;-89
2021/11/01 01:09:49;;;;;;;6.78;1.90;;;11.40;87.60;;;;;;5080850;28;20452;-87
2021/11/01 01:12:16;;;;;;;7.32;2.25;;;11.40;87.60;;;;;;5071665;28;20028;-88
2021/11/01 01:14:46;;;;;;;8.05;2.17;;;11.40;87.60;;;;;;5073122;28;20029;-88
2021/11/01 01:17:12;;;;;;;10.77;2.80;;;11.30;87.50;;;;;;5074813;28;20017;-89
2021/11/01 01:19:51;;;;;;;5.88;2.10;;;11.30;87.30;;;;;;5071675;28;20123;-88
2021/11/01 01:22:25;;;;;;;7.18;2.35;;;11.30;87.30;;;;;;5072307;28;20028;-90
2021/11/01 01:24:50;;;;;;;7.05;1.90;;;11.30;87.30;;;;;;5077115;28;20042;-88
2021/11/01 01:27:16;;;;;;;6.53;1.77;;;11.30;87.40;;;;;;5076586;28;20104;-86
2021/11/01 01:29:41;;;;;;;5.93;1.70;;;11.30;87.30;;;;;;5073380;28;20021;-86
2021/11/01 01:32:07;;;;;;;7.35;1.80;;;11.30;87.30;;;;;;5066025;28;20033;-87
2021/11/01 01:34:33;;;;;;;7.35;1.70;;;11.30;87.30;;;;;;5071296;28;20040;-88
2021/11/01 01:36:59;;;;;;;7.22;2.10;;;11.30;87.30;;;;;;5070462;28;20446;-85
2021/11/01 01:39:24;;;;;;;6.25;1.98;;;11.20;87.10;;;;;;5076521;28;20024;-85
2021/11/01 01:41:50;;;;;;;9.65;2.08;;;11.20;87.20;;;;;;5074509;28;20099;-84
2021/11/01 01:44:15;;;;;;;6.95;2.00;;;11.20;86.90;;;;;;5074175;28;20027;-87
2021/11/01 01:46:42;;;;;;;6.63;1.92;;;11.20;87.00;;;;;;5067807;28;20410;-83
2021/11/01 01:49:07;;;;;;;7.97;1.92;;;11.20;87.00;;;;;;5075787;28;20037;-84
2021/11/01 01:51:33;;;;;;;6.75;1.90;;;11.20;86.90;;;;;;5073770;28;20387;-86
2021/11/01 01:54:00;;;;;;;6.03;1.67;;;11.20;86.90;;;;;;5070584;28;20017;-84
2021/11/01 01:56:26;;;;;;;7.45;1.85;;;11.20;86.90;;;;;;5068815;28;20039;-87
2021/11/01 01:58:56;;;;;;;6.50;1.80;;;11.10;86.80;;;;;;5079916;28;20016;-84
2021/11/01 02:01:25;;;;;;;4.40;1.40;;;11.20;86.90;;;;;;5076304;28;20525;-83
2021/11/01 02:03:52;;;;;;;3.38;1.52;;;11.10;86.80;;;;;;5072920;28;20021;-82
2021/11/01 02:06:56;;;;;;;8.98;1.95;;;11.20;86.90;;;;;;5079783;28;20017;-83
2021/11/01 02:09:27;;;;;;;8.18;1.80;;;11.20;86.60;;;;;;5065950;28;20025;-82
2021/11/01 02:12:08;;;;;;;7.17;2.07;;;11.10;86.50;;;;;;5070900;28;20048;-82
2021/11/01 02:14:56;;;;;;;6.57;1.63;;;11.10;86.30;;;;;;5081149;28;20038;-81
2021/11/01 02:17:26;;;;;;;9.15;2.13;;;11.10;86.20;;;;;;5070624;28;20788;-81
2021/11/01 02:19:54;;;;;;;6.22;1.92;;;11.10;86.10;;;;;;5077636;28;20021;-83
2021/11/01 02:22:51;;;;;;;11.43;2.28;;;11.00;86.00;;;;;;5073334;28;20029;-81
2021/11/01 02:25:41;;;;;;;6.10;1.83;;;11.00;86.00;;;;;;5076142;28;20117;-82
2021/11/01 02:28:14;;;;;;;6.30;1.40;;;11.00;86.00;;;;;;5072449;28;20032;-82
2021/11/01 02:30:40;;;;;;;5.07;1.50;;;10.90;86.00;;;;;;5074824;28;20034;-81
2021/11/01 02:33:07;;;;;;;5.20;1.60;;;10.90;86.00;;;;;;5071735;28;20479;-82
2021/11/01 02:35:34;;;;;;;8.40;1.90;;;10.90;86.10;;;;;;5072475;28;20041;-81
2021/11/01 02:38:02;;;;;;;6.97;1.73;;;10.90;86.00;;;;;;5075485;28;20067;-81
2021/11/01 02:40:29;;;;;;;5.20;1.60;;;10.90;86.00;;;;;;5074239;28;20032;-83
2021/11/01 02:42:54;;;;;;;6.80;1.58;;;10.90;86.00;;;;;;5073301;28;20025;-82
2021/11/01 02:45:20;;;;;;;6.90;2.05;;;10.90;86.00;;;;;;5075723;28;20028;-82
2021/11/01 02:47:46;;;;;;;6.53;1.58;;;10.90;85.90;;;;;;5075822;28;20039;-81
2021/11/01 02:50:13;;;;;;;4.72;1.52;;;10.90;85.90;;;;;;5077742;28;20020;-81
2021/11/01 02:52:39;;;;;;;6.35;2.05;;;10.90;86.00;;;;;;5078393;28;20024;-81
2021/11/01 02:55:06;;;;;;;3.17;1.48;;;10.90;86.10;;;;;;5075769;28;20037;-82
2021/11/01 02:57:33;;;;;;;7.53;2.30;;;10.90;86.10;;;;;;5080064;28;20502;-82
2021/11/01 02:59:59;;;;;;;6.55;2.05;;;10.90;86.00;;;;;;5072001;28;20021;-85
2021/11/01 03:02:24;;;;;;;7.10;1.90;;;10.90;86.00;;;;;;5075167;28;20078;-86
2021/11/01 03:04:50;;;;;;;7.68;1.58;;;10.80;86.00;;;;;;5074358;28;20020;-86
2021/11/01 03:07:17;;;;;;;6.25;2.13;;;10.90;86.10;;;;;;5077996;28;20021;-85
2021/11/01 03:09:45;;;;;;;7.70;1.95;;;10.80;86.10;;;;;;5074304;28;20028;-84
2021/11/01 03:12:15;;;;;;;6.40;1.42;;;10.90;86.20;;;;;;5077093;28;20059;-84
2021/11/01 03:14:48;;;;;;;6.68;1.90;;;10.80;86.20;;;;;;5073321;28;20032;-84
2021/11/01 03:17:18;;;;;;;8.60;2.13;;;10.80;86.10;;;;;;5065062;28;20047;-84
2021/11/01 03:19:49;;;;;;;7.93;2.40;;;10.80;86.10;;;;;;5077917;28;20020;-85
2021/11/01 03:22:17;;;;;;;5.47;2.00;;;10.80;86.20;;;;;;5075737;28;20382;-86
2021/11/01 03:24:46;;;;;;;6.38;1.58;;;10.80;86.20;;;;;;5076858;28;20029;-91
2021/11/01 03:27:16;;;;;;;8.45;2.42;;;10.70;86.30;;;;;;5075102;28;20029;-90
2021/11/01 03:29:45;;;;;;;7.00;1.80;;;10.70;86.30;;;;;;5076242;28;20027;-89
2021/11/01 03:32:13;;;;;;;3.78;1.60;;;10.70;86.40;;;;;;5073925;28;20016;-90
2021/11/01 03:34:40;;;;;;;5.85;1.85;;;10.70;86.50;;;;;;5073740;28;20116;-87
2021/11/01 03:37:10;;;;;;;5.07;1.50;;;10.80;86.50;;;;;;5071259;28;20039;-87
2021/11/01 03:39:40;;;;;;;9.90;2.05;;;10.80;86.40;;;;;;5074248;28;20017;-87
2021/11/01 03:42:08;;;;;;;6.18;2.00;;;10.80;86.50;;;;;;5072519;28;20480;-87
2021/11/01 03:44:37;;;;;;;3.70;1.48;;;10.80;86.50;;;;;;5072168;28;20021;-87
2021/11/01 03:47:05;;;;;;;4.50;1.42;;;10.80;86.50;;;;;;5077186;28;20052;-89
2021/11/01 03:49:34;;;;;;;6.97;2.15;;;10.80;86.60;;;;;;5071689;28;20017;-86
2021/11/01 03:52:16;;;;;;;8.75;1.92;;;10.70;86.60;;;;;;5070836;28;20035;-85
2021/11/01 03:54:42;;;;;;;7.50;1.85;;;10.70;86.70;;;;;;5075372;28;20074;-83
2021/11/01 03:57:09;;;;;;;6.60;1.88;;;10.70;86.70;;;;;;5075047;28;20566;-82
2021/11/01 03:59:37;;;;;;;4.38;1.90;;;10.70;86.80;;;;;;5073871;28;20024;-82
2021/11/01 04:02:03;;;;;;;4.82;1.55;;;10.70;86.90;;;;;;5074118;28;20036;-84
2021/11/01 04:04:28;;;;;;;4.82;1.55;;;10.70;86.90;;;;;;5070285;28;20029;-82
2021/11/01 04:06:55;;;;;;;6.03;2.10;;;10.70;86.90;;;;;;5074582;28;20017;-85
2021/11/01 04:09:21;;;;;;;7.78;2.13;;;10.60;86.90;;;;;;5071853;28;20366;-85
2021/11/01 04:11:50;;;;;;;7.43;2.08;;;10.60;86.90;;;;;;5075535;28;20032;-89
2021/11/01 04:14:19;;;;;;;8.13;1.92;;;10.60;87.00;;;;;;5073093;28;20028;-88
2021/11/01 04:16:51;;;;;;;5.72;1.50;;;10.60;87.00;;;;;;5080991;28;20056;-87
2021/11/01 04:21:45;;;;;;;4.50;1.38;;;10.70;87.00;;;;;;5078081;28;20040;-88
2021/11/01 04:24:11;;;;;;;5.68;1.83;;;10.60;87.00;;;;;;5065723;28;20116;-88
2021/11/01 04:26:37;;;;;;;4.63;1.70;;;10.60;87.00;;;;;;5069597;28;20028;-86
2021/11/01 04:29:06;;;;;;;5.82;1.70;;;10.60;87.00;;;;;;5071799;28;20081;-85
2021/11/01 04:31:35;;;;;;;7.60;1.63;;;10.60;87.10;;;;;;5071037;28;20060;-85
2021/11/01 04:34:03;;;;;;;4.50;1.63;;;10.60;87.00;;;;;;5075713;28;20106;-86
2021/11/01 04:36:29;;;;;;;9.70;2.33;;;10.60;87.10;;;;;;5071183;28;20405;-85
2021/11/01 04:39:10;;;;;;;6.63;1.80;;;10.60;87.10;;;;;;5074023;28;20012;-85
2021/11/01 04:44:34;;;;;;;4.25;1.50;;;10.60;87.00;;;;;;5070962;28;20036;-84
2021/11/01 04:55:03;;;;;;;8.18;1.95;;;10.60;86.90;;;;;;5071442;28;20044;-85
2021/11/01 04:57:29;;;;;;;7.22;2.08;;;10.60;86.90;;;;;;5079816;28;20039;-85
2021/11/01 04:59:55;;;;;;;6.10;1.95;;;10.60;86.90;;;;;;5073567;28;20016;-85
2021/11/01 05:02:21;;;;;;;9.57;2.10;;;10.60;86.80;;;;;;5070095;28;20036;-85
2021/11/01 05:04:49;;;;;;;5.57;1.70;;;10.60;86.80;;;;;;5074543;28;20017;-86
2021/11/01 05:07:15;;;;;;;3.67;1.40;;;10.60;86.90;;;;;;5071042;28;20104;-85
2021/11/01 05:15:02;;;;;;;6.03;2.08;;;10.60;86.90;;;;;;5070485;28;20505;-85
2021/11/01 05:18:14;;;;;;;6.90;1.85;;;10.50;86.80;;;;;;5071832;28;20039;-85
2021/11/01 05:20:26;;;;;;;5.75;1.63;;;10.50;86.80;;;;;;5066093;28;20052;-85
2021/11/01 05:23:04;;;;;;;5.63;2.30;;;10.60;86.90;;;;;;5072972;28;20361;-86
2021/11/01 05:28:27;;;;;;;6.03;1.95;;;10.50;86.80;;;;;;5077237;28;20046;-86
2021/11/01 05:33:38;;;;;;;7.20;1.92;;;10.50;86.80;;;;;;5074256;28;20085;-88
2021/11/01 05:36:05;;;;;;;8.95;2.00;;;10.50;86.80;;;;;;5070447;28;20044;-86
2021/11/01 05:38:30;;;;;;;7.65;2.22;;;10.50;86.90;;;;;;5069625;28;20608;-88
2021/11/01 05:40:56;;;;;;;8.63;2.10;;;10.50;86.90;;;;;;5071994;28;20024;-87
2021/11/01 05:43:21;;;;;;;7.90;2.28;;;10.50;86.90;;;;;;5075480;28;20066;-87
2021/11/01 05:45:47;;;;;;;7.13;1.85;;;10.50;86.80;;;;;;5070362;28;20050;-87
2021/11/01 05:48:12;;;;;;;4.38;1.73;;;10.50;86.80;;;;;;5074085;28;20029;-87
2021/11/01 05:50:38;;;;;;;11.55;2.58;;;10.50;86.70;;;;;;5071583;28;20100;-88
2021/11/01 05:53:09;;;;;;;6.47;1.88;;;10.40;86.70;;;;;;5068254;28;20032;-86
2021/11/01 06:06:02;;;;;;;7.53;1.80;;;10.40;86.70;;;;;;5071113;28;20033;-86
2021/11/01 06:13:53;;;;;;;8.75;2.15;;;10.40;86.70;;;;;;5070565;28;20052;-83
2021/11/01 06:16:19;;;;;;;5.50;1.55;;;10.40;86.60;;;;;;5071579;28;20056;-84
2021/11/01 06:18:45;;;;;;;9.10;2.30;;;10.40;86.70;;;;;;5066532;28;20387;-84
2021/11/01 06:21:15;;;;;;;5.60;1.38;;;10.40;86.70;;;;;;5080528;28;20024;-85
2021/11/01 06:23:44;;;;;;;6.70;2.05;;;10.40;86.70;;;;;;5074150;28;20027;-83
2021/11/01 06:26:09;;;;;;;5.95;1.80;;;10.50;86.70;;;;;;5073074;28;20021;-81
2021/11/01 06:28:35;;;;;;;6.93;1.83;;;10.50;86.70;;;;;;5074284;28;20031;-83
2021/11/01 06:31:11;;;;;;;8.65;2.10;;;10.50;86.50;;;;;;5075036;28;20028;-83
2021/11/01 06:39:25;;;;;;;9.13;2.13;;;10.50;86.40;;;;;;5057250;28;20180;-81
2021/11/01 06:44:48;;;;;;;8.52;1.95;;;10.60;86.30;;;;;;5071975;28;20039;-82
2021/11/01 06:56:02;;;;;;;4.13;1.52;;;10.70;86.20;;;;;;5075341;28;20046;-88
2021/11/01 06:57:54;;;;;;;6.57;1.88;;;10.70;86.20;;;;;;5065808;28;20043;-83
2021/11/01 07:24:54;;;;;;;12.30;3.53;;;10.80;85.20;;;;;;5074809;28;20036;-77
2021/11/01 08:30:18;;;;;;;7.20;2.25;;;11.30;83.30;;;;;;5070698;28;20040;-80
2021/11/01 08:38:33;;;;;;;5.63;1.67;;;11.40;82.60;;;;;;5067448;28;20035;-81
2021/11/01 09:04:47;;;;;;;5.57;1.95;;;11.50;81.30;;;;;;5068349;28;20029;-82
2021/11/01 09:10:14;;;;;;;8.52;2.05;;;11.50;81.30;;;;;;5068208;28;20510;-81
2021/11/01 09:26:10;;;;;;;7.22;2.35;;;11.50;80.80;;;;;;5070133;28;20036;-82
2021/11/01 09:28:44;;;;;;;9.25;2.25;;;11.60;80.80;;;;;;5074800;28;20077;-80
2021/11/01 09:37:07;;;;;;;8.57;2.53;;;11.60;80.40;;;;;;5068393;28;20063;-79
2021/11/01 09:42:18;;;;;;;7.55;2.03;;;11.60;80.40;;;;;;5049419;28;20561;-79
2021/11/01 09:44:47;;;;;;;6.10;1.90;;;11.70;80.40;;;;;;5075749;28;20027;-80
2021/11/01 09:47:14;;;;;;;8.73;1.85;;;11.70;80.40;;;;;;5071129;28;20025;-80
2021/11/01 09:49:40;;;;;;;6.38;2.10;;;11.70;80.30;;;;;;5069322;28;20037;-80
2021/11/01 09:52:08;;;;;;;7.28;2.05;;;11.80;79.80;;;;;;5074264;28;20059;-81
2021/11/01 09:54:37;;;;;;;4.78;1.98;;;11.80;79.60;;;;;;5067006;28;20025;-81
2021/11/01 09:57:08;;;;;;;8.18;2.17;;;11.80;79.60;;;;;;5066102;28;20040;-80
2021/11/01 09:59:40;;;;;;;6.30;2.00;;;11.80;79.40;;;;;;5068724;28;20462;-80
2021/11/01 10:02:09;;;;;;;5.28;1.63;;;11.90;79.30;;;;;;5065910;28;20033;-80
2021/11/01 10:04:36;;;;;;;5.25;1.80;;;12.00;79.40;;;;;;5061337;28;20017;-80
2021/11/01 10:07:18;;;;;;;6.90;1.70;;;12.10;78.90;;;;;;5064777;28;20111;-81
2021/11/01 10:09:45;;;;;;;9.32;2.25;;;12.10;78.70;;;;;;5068545;28;20023;-81
2021/11/01 10:12:33;;;;;;;6.43;1.60;;;12.10;78.10;;;;;;5063069;28;20028;-81
2021/11/01 10:18:05;;;;;;;9.02;2.00;;;12.10;78.20;;;;;;5067839;28;20044;-81
2021/11/01 10:20:33;;;;;;;5.53;1.95;;;12.10;78.20;;;;;;5060663;28;20027;-78
2021/11/01 10:23:01;;;;;;;5.30;1.80;;;12.10;77.70;;;;;;5069381;28;20024;-78
2021/11/01 10:25:26;;;;;;;6.57;1.90;;;12.10;77.00;;;;;;5074652;28;20032;-78
2021/11/01 10:27:57;;;;;;;4.78;1.52;;;12.20;77.00;;;;;;5071468;28;20435;-78
2021/11/01 10:30:35;;;;;;;7.68;1.90;;;12.20;77.40;;;;;;5067048;28;20032;-77
2021/11/01 10:33:05;;;;;;;5.95;1.80;;;12.30;76.80;;;;;;5066859;28;20028;-78
2021/11/01 10:35:39;;;;;;;4.60;1.55;;;12.40;77.00;;;;;;5078083;28;20043;-78
2021/11/01 10:38:13;;;;;;;4.88;2.03;;;12.50;76.70;;;;;;5070856;28;20112;-78
2021/11/01 10:41:41;;;;;;;4.20;1.55;;;12.60;76.50;;;;;;5074606;28;20056;-81
2021/11/01 11:17:04;;;;;;;5.15;1.50;;;12.80;74.30;;;;;;5073701;28;20040;-80
2021/11/01 11:27:39;;;;;;;4.82;1.60;;;13.00;74.90;;;;;;5074243;28;20044;-77
2021/11/01 11:49:33;;;;;;;6.53;1.27;;;13.70;70.40;;;;;;5069374;28;20040;-74
2021/11/01 11:52:03;;;;;;;8.55;1.77;;;14.10;69.30;;;;;;5072147;28;20027;-74
2021/11/01 11:54:50;;;;;;;4.68;1.63;;;14.70;67.40;;;;;;5071062;28;20039;-74
2021/11/01 11:57:20;;;;;;;3.40;1.30;;;14.70;66.00;;;;;;5069077;28;20151;-74
2021/11/01 11:59:48;;;;;;;4.78;1.55;;;14.30;67.70;;;;;;5069693;28;20032;-74
2021/11/01 12:02:14;;;;;;;3.22;1.48;;;13.90;68.30;;;;;;5070707;28;20036;-74
2021/11/01 12:04:50;;;;;;;4.45;1.42;;;13.70;69.50;;;;;;5070767;28;20078;-74
2021/11/01 12:07:17;;;;;;;2.92;1.23;;;13.70;70.30;;;;;;5069935;28;20083;-74
2021/11/01 12:09:57;;;;;;;3.75;1.30;;;13.70;70.60;;;;;;5070530;28;20020;-74
2021/11/01 12:17:23;;;;;;;3.38;1.20;;;13.60;70.90;;;;;;5070889;28;20389;-75
2021/11/01 12:19:49;;;;;;;4.03;1.20;;;13.50;70.80;;;;;;5067938;28;20033;-73
2021/11/01 12:22:27;;;;;;;5.00;1.50;;;13.60;70.70;;;;;;5071866;28;20533;-73
2021/11/01 12:24:55;;;;;;;4.05;1.40;;;13.50;70.10;;;;;;5069537;28;20117;-72
2021/11/01 12:27:21;;;;;;;3.72;1.35;;;13.80;70.50;;;;;;5071276;28;20032;-72
2021/11/01 12:29:49;;;;;;;5.78;1.30;;;14.10;69.80;;;;;;5086086;28;20493;-72
2021/11/01 12:32:15;;;;;;;3.15;1.15;;;14.10;69.40;;;;;;5072100;28;20024;-73
2021/11/01 12:35:22;;;;;;;3.10;1.20;;;13.90;69.50;;;;;;5066793;28;20104;-72
2021/11/01 12:37:53;;;;;;;4.30;1.40;;;13.80;69.60;;;;;;5080685;28;20035;-73
2021/11/01 12:40:37;;;;;;;2.90;1.10;;;13.70;68.90;;;;;;5075396;28;20082;-74
2021/11/01 12:43:17;;;;;;;4.10;1.30;;;13.70;68.90;;;;;;5072845;28;20462;-73
2021/11/01 12:57:03;;;;;;;6.05;1.40;;;13.80;69.50;;;;;;5067395;28;20087;-72
2021/11/01 12:59:40;;;;;;;2.40;1.40;;;13.70;68.90;;;;;;5068324;28;20036;-73
2021/11/01 13:02:08;;;;;;;3.55;1.20;;;13.70;68.60;;;;;;5067181;28;20360;-72
2021/11/01 13:04:37;;;;;;;4.93;1.15;;;13.70;69.30;;;;;;5065095;28;20410;-71
2021/11/01 13:07:14;;;;;;;3.95;1.25;;;13.70;69.00;;;;;;5066622;28;20394;-73
2021/11/01 13:09:45;;;;;;;2.85;1.20;;;13.60;69.00;;;;;;5067321;28;20086;-71
2021/11/01 13:12:31;;;;;;;3.35;1.00;;;13.60;69.40;;;;;;5069569;28;20044;-71
2021/11/01 13:17:48;;;;;;;4.88;1.60;;;13.70;69.80;;;;;;5063618;28;20475;-72
2021/11/01 13:18:12;;;;;;;6.07;1.95;;;13.80;69.70;;;;;;5067155;28;20036;-72
2021/11/01 13:21:01;;;;;;;5.88;1.75;;;13.90;68.10;;;;;;5075170;28;20028;-73
2021/11/01 13:23:32;;;;;;;2.65;1.05;;;14.00;68.30;;;;;;5065617;28;20059;-72
2021/11/01 13:36:48;;;;;;;2.35;1.33;;;14.30;67.90;;;;;;5071663;28;20078;-74
2021/11/01 13:39:29;;;;;;;2.70;1.08;;;14.20;67.00;;;;;;5065774;28;20047;-71
2021/11/01 13:41:55;;;;;;;2.50;1.10;;;14.10;67.80;;;;;;5072877;28;20108;-74
2021/11/01 13:44:27;;;;;;;2.95;1.20;;;14.10;67.70;;;;;;5065073;28;20052;-73
2021/11/01 13:47:01;;;;;;;5.28;1.33;;;14.10;67.60;;;;;;5068352;28;20054;-72
2021/11/01 13:49:32;;;;;;;4.97;1.50;;;14.10;67.20;;;;;;5073272;28;20028;-73
2021/11/01 13:52:36;;;;;;;7.43;1.40;;;14.00;67.00;;;;;;5071183;28;20027;-73
2021/11/01 13:58:03;;;;;;;5.40;1.60;;;14.00;67.30;;;;;;5068899;28;20032;-71
2021/11/01 14:01:20;;;;;;;3.28;1.30;;;13.90;66.30;;;;;;5069255;28;20028;-72
2021/11/01 14:11:54;;;;;;;8.15;1.42;;;14.10;67.50;;;;;;5067074;28;20513;-73
2021/11/01 14:17:05;;;;;;;2.38;1.10;;;14.00;67.00;;;;;;5076124;28;20044;-73
2021/11/01 14:27:39;;;;;;;6.88;1.38;;;13.70;67.10;;;;;;5062498;28;20704;-72
2021/11/01 14:35:47;;;;;;;2.80;1.15;;;13.60;67.70;;;;;;5065906;28;20040;-73
2021/11/01 15:16:35;;;;;;;4.13;1.58;;;13.30;68.40;;;;;;5066265;28;20413;-71
2021/11/01 15:19:15;;;;;;;5.63;1.25;;;13.30;68.40;;;;;;5064573;28;20048;-71
2021/11/01 15:35:37;;;;;;;3.75;1.23;;;13.10;68.80;;;;;;5066853;28;20044;-72
2021/11/01 16:18:53;;;;;;;3.78;1.30;;;12.90;70.70;;;;;;5072043;28;20029;-73
2021/11/01 16:21:19;;;;;;;2.08;1.10;;;12.90;70.80;;;;;;5073293;28;20673;-73
2021/11/01 16:23:45;;;;;;;1.73;1.20;;;12.90;71.00;;;;;;5074636;28;20021;-73
2021/11/01 16:26:18;;;;;;;4.18;1.35;;;12.90;71.10;;;;;;5071625;28;20051;-73
2021/11/01 16:28:47;;;;;;;3.28;1.50;;;12.90;71.20;;;;;;5059827;28;20476;-73
2021/11/01 16:31:24;;;;;;;6.00;1.80;;;12.80;71.20;;;;;;5067088;28;20039;-74
2021/11/01 16:33:56;;;;;;;4.07;1.73;;;12.80;71.20;;;;;;5075294;28;20028;-73
2021/11/01 16:39:15;;;;;;;3.15;1.15;;;12.80;71.50;;;;;;5071897;28;20140;-73
2021/11/01 16:41:42;;;;;;;1.65;0.90;;;12.80;71.70;;;;;;5070383;28;20028;-73
2021/11/01 16:44:31;;;;;;;2.65;1.10;;;12.80;71.80;;;;;;5076562;28;20026;-73
2021/11/01 16:46:55;;;;;;;3.90;1.15;;;12.80;71.90;;;;;;5069215;28;20032;-73
2021/11/01 16:49:22;;;;;;;4.97;1.30;;;12.70;72.00;;;;;;5071187;28;20036;-73
2021/11/01 16:51:51;;;;;;;3.45;1.23;;;12.80;72.10;;;;;;5072666;28;20036;-73
2021/11/01 16:54:20;;;;;;;2.45;1.17;;;12.80;72.20;;;;;;5075179;28;20028;-73
2021/11/01 17:02:16;;;;;;;2.78;1.40;;;12.80;72.10;;;;;;5076683;28;20082;-73
2021/11/01 17:04:58;;;;;;;2.78;1.00;;;12.80;72.20;;;;;;5072293;28;20028;-73
2021/11/01 17:26:47;;;;;;;2.20;1.30;;;11.60;78.10;;;;;;5084090;28;20116;-72
2021/11/01 18:41:04;;;;;;;1.42;0.90;;;11.20;80.70;;;;;;5067094;28;20079;-72
2021/11/01 18:51:39;;;;;;;1.27;1.17;;;11.10;81.10;;;;;;5069320;28;20039;-72
2021/11/01 18:54:18;;;;;;;1.95;1.20;;;11.10;81.10;;;;;;5072678;28;20031;-72
2021/11/01 18:56:49;;;;;;;2.10;1.00;;;11.10;81.30;;;;;;5072442;28;20495;-72
2021/11/01 18:59:16;;;;;;;1.65;0.85;;;11.00;81.40;;;;;;5070702;28;20103;-72
2021/11/01 19:01:49;;;;;;;1.25;0.88;;;11.00;81.50;;;;;;5070696;28;20028;-72
2021/11/01 19:04:23;;;;;;;2.72;1.30;;;11.00;81.60;;;;;;5069721;28;20404;-72
2021/11/01 19:06:57;;;;;;;3.22;1.30;;;10.90;81.60;;;;;;5071209;28;20025;-72
2021/11/01 20:04:49;;;;;;;1.80;1.30;;;10.40;83.20;;;;;;5068587;28;20048;-72
2021/11/01 21:25:05;;;;;;;3.63;2.42;;;10.30;82.40;;;;;;5073375;28;20035;-72
2021/11/01 21:27:31;;;;;;;3.28;2.38;;;10.30;82.40;;;;;;5070372;28;20024;-72
2021/11/01 21:29:57;;;;;;;3.22;2.25;;;10.20;82.40;;;;;;5067200;28;20017;-72
2021/11/01 21:32:24;;;;;;;3.63;2.60;;;10.20;82.40;;;;;;5079005;28;20024;-72
2021/11/01 21:35:07;;;;;;;3.38;2.60;;;10.20;82.50;;;;;;5076704;28;20384;-72
2021/11/01 21:37:33;;;;;;;4.28;2.20;;;10.10;83.20;;;;;;5078782;28;20033;-72
2021/11/01 21:40:00;;;;;;;4.53;2.40;;;10.10;82.60;;;;;;5072800;28;20215;-72
2021/11/01 21:42:26;;;;;;;4.80;2.75;;;10.10;82.60;;;;;;5063384;28;20089;-71
2021/11/01 21:44:52;;;;;;;3.78;2.33;;;10.10;82.80;;;;;;5074619;28;20090;-72
2021/11/01 21:47:18;;;;;;;5.05;2.80;;;10.00;82.90;;;;;;5072266;28;20028;-72
2021/11/01 21:49:45;;;;;;;3.10;2.20;;;10.10;82.90;;;;;;5066736;28;20808;-71
2021/11/01 21:52:13;;;;;;;4.45;2.50;;;10.00;83.00;;;;;;5066670;28;20020;-72
2021/11/01 21:54:45;;;;;;;3.92;2.55;;;10.10;83.10;;;;;;5074241;28;20036;-72
2021/11/01 21:57:16;;;;;;;3.53;2.50;;;10.00;83.10;;;;;;5067740;28;21735;-72
2021/11/01 22:24:22;;;;;;;4.10;2.72;;;9.90;83.50;;;;;;5069452;28;20032;-72
2021/11/01 22:39:59;;;;;;;3.42;2.28;;;9.80;83.90;;;;;;5070616;28;20097;-71
2021/11/01 22:45:16;;;;;;;4.32;2.30;;;9.80;84.00;;;;;;5069624;28;20040;-71
2021/11/01 22:56:14;;;;;;;4.00;2.25;;;9.80;84.20;;;;;;5070639;28;20492;-72
2021/11/01 22:58:41;;;;;;;4.03;2.60;;;9.80;84.20;;;;;;5069601;28;20028;-72
2021/11/01 23:01:19;;;;;;;4.07;2.22;;;9.80;84.20;;;;;;5072842;28;20009;-72
2021/11/01 23:04:00;;;;;;;5.13;2.58;;;9.70;84.40;;;;;;5081176;28;20020;-72
2021/11/01 23:06:44;;;;;;;5.32;2.53;;;9.70;84.60;;;;;;5074165;28;20169;-72
2021/11/01 23:33:51;;;;;;;4.57;2.83;;;9.60;85.30;;;;;;5070945;28;20141;-72
2021/11/01 23:36:17;;;;;;;4.80;2.53;;;9.50;85.30;;;;;;5079303;28;20032;-72
2021/11/01 23:38:42;;;;;;;3.55;2.40;;;9.50;85.40;;;;;;5073100;28;20031;-72
2021/11/01 23:41:08;;;;;;;4.65;2.25;;;9.50;85.30;;;;;;5080532;28;20111;-71
2021/11/01 23:43:34;;;;;;;3.97;2.30;;;9.50;85.30;;;;;;5069256;28;20032;-71
2021/11/01 23:46:00;;;;;;;3.63;2.50;;;9.50;85.30;;;;;;5073558;28;20028;-71
2021/11/01 23:48:26;;;;;;;4.07;2.70;;;9.50;85.30;;;;;;5077462;28;20624;-71
2021/11/01 23:50:52;;;;;;;4.47;2.40;;;9.50;85.30;;;;;;5074589;28;20074;-71
2021/11/01 23:56:03;;;;;;;3.00;2.20;;;9.40;85.40;;;;;;5076717;28;20036;-72
2021/11/01 23:58:29;;;;;;;4.75;3.03;;;9.40;85.50;;;;;;5070303;28;20033;-72
